Time;durP1;ratioP1;P1;durP2;ratioP2;P2;SDS_P1;SDS_P2;PMS_P1;PMS_P2;Temp;Humidity;BMP_temperature;BMP_pressure;BME280_temperature;BME280_humidity;BME280_pressure;Samples;Min_cycle;Max_cycle;Signal;HPM_P1;HPM_P2
2024/03/27 00:02:16;;;;;;;7.03;2.63;;;;;;;;;;5076832;28;20070;-55
2024/03/27 00:04:42;;;;;;;6.40;2.88;;;;;;;;;;5077078;28;20048;-58
2024/03/27 00:07:07;;;;;;;7.05;2.70;;;;;;;;;;5077114;28;20020;-57
2024/03/27 00:09:32;;;;;;;6.95;2.83;;;;;;;;;;5076801;28;20012;-55
2024/03/27 00:11:58;;;;;;;6.97;2.72;;;;;;;;;;5076822;28;20403;-56
2024/03/27 00:14:23;;;;;;;5.25;2.65;;;;;;;;;;5076942;28;20441;-54
2024/03/27 00:16:49;;;;;;;8.88;2.58;;;;;;;;;;5076655;28;20039;-54
2024/03/27 00:19:14;;;;;;;9.82;2.97;;;;;;;;;;5076887;28;20078;-52
2024/03/27 00:21:40;;;;;;;4.82;2.53;;;;;;;;;;5076582;28;20096;-56
2024/03/27 00:24:05;;;;;;;4.72;2.53;;;;;;;;;;5076455;28;20437;-53
2024/03/27 00:26:31;;;;;;;4.68;2.50;;;;;;;;;;5076384;28;20017;-51
2024/03/27 00:28:56;;;;;;;4.50;2.30;;;;;;;;;;5076423;28;20021;-53
2024/03/27 00:31:21;;;;;;;5.88;2.60;;;;;;;;;;5059592;28;20023;-54
2024/03/27 00:33:46;;;;;;;6.78;2.58;;;;;;;;;;5076366;28;20028;-52
2024/03/27 00:36:12;;;;;;;6.13;2.25;;;;;;;;;;5076210;28;20377;-56
2024/03/27 00:38:37;;;;;;;5.70;2.40;;;;;;;;;;5076507;28;20025;-56
2024/03/27 00:41:03;;;;;;;6.80;2.33;;;;;;;;;;5076486;28;20028;-55
2024/03/27 00:43:28;;;;;;;5.35;2.53;;;;;;;;;;5076084;28;20035;-54
2024/03/27 00:45:53;;;;;;;7.30;2.90;;;;;;;;;;5076155;28;20016;-53
2024/03/27 00:48:18;;;;;;;4.78;2.58;;;;;;;;;;5076076;28;20025;-52
2024/03/27 00:50:44;;;;;;;6.22;2.97;;;;;;;;;;5075994;28;20095;-55
2024/03/27 00:53:09;;;;;;;7.03;3.00;;;;;;;;;;5075984;28;20107;-57
2024/03/27 00:55:34;;;;;;;10.88;5.45;;;;;;;;;;5076106;28;20024;-57
2024/03/27 00:57:59;;;;;;;10.80;5.75;;;;;;;;;;5075756;28;20376;-55
2024/03/27 01:00:25;;;;;;;14.63;6.53;;;;;;;;;;5075854;28;20021;-54
2024/03/27 01:02:50;;;;;;;12.77;6.90;;;;;;;;;;5075630;28;20036;-54
2024/03/27 01:05:16;;;;;;;12.23;7.55;;;;;;;;;;5075663;28;20024;-55
2024/03/27 01:07:42;;;;;;;12.60;8.38;;;;;;;;;;5075897;28;20040;-56
2024/03/27 01:10:08;;;;;;;15.43;10.40;;;;;;;;;;5075557;28;20423;-55
2024/03/27 01:12:33;;;;;;;15.93;11.45;;;;;;;;;;5075086;28;20025;-55
2024/03/27 01:14:58;;;;;;;19.30;11.35;;;;;;;;;;5075493;28;20365;-53
2024/03/27 01:17:24;;;;;;;18.52;12.07;;;;;;;;;;5075693;28;20123;-52
2024/03/27 01:19:49;;;;;;;19.20;12.27;;;;;;;;;;5075667;28;20032;-53
2024/03/27 01:22:14;;;;;;;24.92;12.68;;;;;;;;;;5075588;28;20020;-53
2024/03/27 01:24:39;;;;;;;21.90;13.63;;;;;;;;;;5075283;28;20050;-55
2024/03/27 01:27:05;;;;;;;18.15;12.68;;;;;;;;;;5075277;28;20020;-56
2024/03/27 01:29:30;;;;;;;19.48;12.32;;;;;;;;;;5075203;28;20016;-52
2024/03/27 01:31:55;;;;;;;17.10;11.52;;;;;;;;;;5075168;28;20158;-54
2024/03/27 01:34:20;;;;;;;18.48;12.18;;;;;;;;;;5075147;28;20441;-52
2024/03/27 01:36:46;;;;;;;18.40;11.68;;;;;;;;;;5057403;28;20334;-56
2024/03/27 01:39:11;;;;;;;17.08;11.60;;;;;;;;;;5057707;28;20016;-54
2024/03/27 01:41:36;;;;;;;19.00;10.90;;;;;;;;;;5075048;28;20408;-53
2024/03/27 01:44:01;;;;;;;17.92;10.70;;;;;;;;;;5074823;28;20012;-52
2024/03/27 01:46:26;;;;;;;16.30;10.15;;;;;;;;;;5074908;28;20457;-52
2024/03/27 01:48:55;;;;;;;16.20;10.68;;;;;;;;;;5074767;28;20112;-55
2024/03/27 01:51:21;;;;;;;18.40;10.52;;;;;;;;;;5075042;28;20012;-53
2024/03/27 01:53:47;;;;;;;17.02;11.18;;;;;;;;;;5074753;28;20020;-53
2024/03/27 01:56:13;;;;;;;15.70;10.20;;;;;;;;;;5074906;28;20016;-52
2024/03/27 01:58:38;;;;;;;17.23;10.82;;;;;;;;;;5074665;28;20023;-53
2024/03/27 02:01:03;;;;;;;14.93;10.07;;;;;;;;;;5074555;28;20020;-52
2024/03/27 02:03:28;;;;;;;15.18;9.10;;;;;;;;;;5056969;28;20025;-52
2024/03/27 02:05:54;;;;;;;16.95;9.50;;;;;;;;;;5074889;28;20023;-54
2024/03/27 02:08:19;;;;;;;17.13;9.57;;;;;;;;;;5074836;28;20091;-51
2024/03/27 02:10:45;;;;;;;13.45;8.48;;;;;;;;;;5074697;28;20059;-52
2024/03/27 02:13:10;;;;;;;13.80;8.82;;;;;;;;;;5074623;28;20556;-53
2024/03/27 02:15:35;;;;;;;13.68;8.38;;;;;;;;;;5074493;28;20016;-53
2024/03/27 02:18:01;;;;;;;14.45;7.63;;;;;;;;;;5074513;28;20020;-55
2024/03/27 02:20:26;;;;;;;12.57;6.47;;;;;;;;;;5074454;28;20323;-55
2024/03/27 02:22:54;;;;;;;9.25;5.38;;;;;;;;;;5073701;28;20321;-53
2024/03/27 02:25:25;;;;;;;9.20;5.22;;;;;;;;;;5074378;28;20016;-52
2024/03/27 02:27:50;;;;;;;9.23;5.00;;;;;;;;;;5074360;28;20028;-54
2024/03/27 02:30:15;;;;;;;8.13;4.20;;;;;;;;;;5074359;28;20020;-56
2024/03/27 02:32:41;;;;;;;8.65;3.85;;;;;;;;;;5074405;28;20009;-54
2024/03/27 02:35:12;;;;;;;10.63;3.67;;;;;;;;;;5074369;28;20016;-56
2024/03/27 02:37:37;;;;;;;5.22;2.80;;;;;;;;;;5074444;28;20020;-57
2024/03/27 02:40:02;;;;;;;7.25;2.88;;;;;;;;;;5074285;28;20319;-55
2024/03/27 02:42:27;;;;;;;4.85;2.50;;;;;;;;;;5074203;28;20069;-54
2024/03/27 02:44:53;;;;;;;5.10;2.70;;;;;;;;;;5074279;28;20021;-57
2024/03/27 02:47:18;;;;;;;5.15;2.42;;;;;;;;;;5074213;28;20055;-53
2024/03/27 02:49:43;;;;;;;6.10;2.65;;;;;;;;;;5074144;28;20062;-53
2024/03/27 02:52:08;;;;;;;5.68;2.80;;;;;;;;;;5074131;28;20017;-54
2024/03/27 02:54:34;;;;;;;5.97;2.75;;;;;;;;;;5074125;28;20025;-58
2024/03/27 02:56:59;;;;;;;6.20;2.83;;;;;;;;;;5074015;28;20450;-57
2024/03/27 02:59:24;;;;;;;8.55;2.65;;;;;;;;;;5074286;28;20082;-55
2024/03/27 03:01:50;;;;;;;7.40;2.95;;;;;;;;;;5054628;23;20231;-87
2024/03/27 03:04:17;;;;;;;5.43;2.58;;;;;;;;;;5034287;28;20465;-86
2024/03/27 03:06:43;;;;;;;5.43;2.35;;;;;;;;;;5066994;28;20018;-87
2024/03/27 03:09:10;;;;;;;5.65;2.50;;;;;;;;;;5034491;28;20435;-86
2024/03/27 03:11:36;;;;;;;5.55;2.70;;;;;;;;;;5034764;28;20112;-85
2024/03/27 03:14:03;;;;;;;8.60;2.83;;;;;;;;;;5034945;28;20036;-86
2024/03/27 03:16:29;;;;;;;4.82;2.42;;;;;;;;;;5033512;28;20092;-86
2024/03/27 03:18:55;;;;;;;6.72;2.17;;;;;;;;;;5034800;28;20043;-87
2024/03/27 03:21:23;;;;;;;6.40;2.35;;;;;;;;;;5034986;28;20033;-87
2024/03/27 03:23:49;;;;;;;5.50;2.47;;;;;;;;;;5067177;28;20061;-87
2024/03/27 03:26:16;;;;;;;6.05;2.53;;;;;;;;;;5034720;28;20041;-86
2024/03/27 03:28:42;;;;;;;5.40;2.40;;;;;;;;;;5034913;28;20057;-87
2024/03/27 03:31:08;;;;;;;5.10;2.47;;;;;;;;;;5066913;28;20025;-86
2024/03/27 03:33:35;;;;;;;6.88;2.25;;;;;;;;;;5066845;28;20025;-86
2024/03/27 03:36:01;;;;;;;7.15;2.40;;;;;;;;;;5037881;28;20099;-87
2024/03/27 03:38:28;;;;;;;6.60;2.65;;;;;;;;;;5037222;28;20036;-87
2024/03/27 03:41:01;;;;;;;10.45;2.60;;;;;;;;;;5038072;28;20075;-86
2024/03/27 03:43:28;;;;;;;6.20;2.90;;;;;;;;;;5037226;28;20055;-86
2024/03/27 03:45:55;;;;;;;5.07;2.58;;;;;;;;;;5038271;28;20021;-86
2024/03/27 03:48:22;;;;;;;5.07;2.40;;;;;;;;;;5036823;28;20025;-86
2024/03/27 03:50:48;;;;;;;5.00;2.35;;;;;;;;;;5037709;28;20022;-86
2024/03/27 03:53:15;;;;;;;5.35;2.63;;;;;;;;;;5036866;28;20044;-87
2024/03/27 03:55:41;;;;;;;6.63;2.50;;;;;;;;;;5037874;28;20519;-86
2024/03/27 03:58:07;;;;;;;4.55;2.30;;;;;;;;;;5037655;28;20086;-86
2024/03/27 04:00:33;;;;;;;7.13;2.92;;;;;;;;;;5084062;23;20037;-55
2024/03/27 04:02:59;;;;;;;6.35;2.65;;;;;;;;;;5037111;28;20401;-53
2024/03/27 04:05:25;;;;;;;7.47;2.88;;;;;;;;;;5037138;28;20045;-57
2024/03/27 04:07:52;;;;;;;12.48;2.78;;;;;;;;;;5036945;28;20025;-55
2024/03/27 04:10:18;;;;;;;6.15;2.70;;;;;;;;;;5037156;28;20024;-57
2024/03/27 04:12:44;;;;;;;8.40;2.75;;;;;;;;;;5037141;28;20033;-58
2024/03/27 04:15:11;;;;;;;5.97;3.15;;;;;;;;;;5036794;28;20104;-54
2024/03/27 04:17:37;;;;;;;6.43;2.85;;;;;;;;;;5037004;28;20029;-58
2024/03/27 04:20:13;;;;;;;6.93;2.92;;;;;;;;;;5019898;28;20063;-55
2024/03/27 04:22:39;;;;;;;6.35;3.33;;;;;;;;;;5037324;28;20083;-56
2024/03/27 04:25:06;;;;;;;6.30;2.90;;;;;;;;;;5036584;28;20021;-58
2024/03/27 04:27:32;;;;;;;6.10;2.78;;;;;;;;;;5036551;28;20022;-54
2024/03/27 04:29:59;;;;;;;8.90;2.50;;;;;;;;;;5036461;28;20056;-56
2024/03/27 04:32:25;;;;;;;4.97;2.53;;;;;;;;;;5037164;28;20056;-58
2024/03/27 04:34:52;;;;;;;6.72;2.60;;;;;;;;;;5036850;28;20121;-56
2024/03/27 04:37:18;;;;;;;8.07;2.70;;;;;;;;;;5037090;28;20021;-56
2024/03/27 04:39:45;;;;;;;7.93;3.10;;;;;;;;;;5036834;28;20025;-57
2024/03/27 04:42:12;;;;;;;5.05;2.50;;;;;;;;;;5037043;28;20021;-55
2024/03/27 04:44:38;;;;;;;5.75;2.67;;;;;;;;;;5036551;28;20032;-56
2024/03/27 04:47:05;;;;;;;5.93;2.58;;;;;;;;;;5036048;28;20025;-56
2024/03/27 04:49:31;;;;;;;11.93;5.05;;;;;;;;;;5036587;28;20017;-54
2024/03/27 04:51:58;;;;;;;6.30;3.30;;;;;;;;;;5036789;28;20036;-56
2024/03/27 04:54:24;;;;;;;8.13;3.10;;;;;;;;;;5019021;28;20029;-57
2024/03/27 04:56:51;;;;;;;6.72;2.38;;;;;;;;;;5036395;28;20028;-57
2024/03/27 04:59:18;;;;;;;6.82;2.50;;;;;;;;;;5036373;28;20029;-57
2024/03/27 05:01:45;;;;;;;6.18;3.20;;;;;;;;;;5036222;28;20041;-57
2024/03/27 05:04:11;;;;;;;8.07;2.85;;;;;;;;;;5036236;28;20025;-56
2024/03/27 05:06:41;;;;;;;11.57;3.88;;;;;;;;;;5036764;28;20032;-55
2024/03/27 05:09:09;;;;;;;7.25;2.60;;;;;;;;;;5036175;28;20022;-57
2024/03/27 05:11:35;;;;;;;5.82;2.95;;;;;;;;;;5036716;28;20021;-56
2024/03/27 05:14:00;;;;;;;6.22;3.25;;;;;;;;;;5036092;28;20055;-57
2024/03/27 05:16:25;;;;;;;9.18;3.42;;;;;;;;;;5036159;28;20017;-58
2024/03/27 05:18:51;;;;;;;8.00;3.38;;;;;;;;;;5036334;28;20013;-57
2024/03/27 05:21:17;;;;;;;7.22;2.90;;;;;;;;;;5035924;28;20101;-57
2024/03/27 05:23:43;;;;;;;8.13;3.10;;;;;;;;;;5018453;28;20035;-54
2024/03/27 05:26:08;;;;;;;6.55;2.90;;;;;;;;;;5036156;28;20096;-55
2024/03/27 05:28:33;;;;;;;6.25;3.00;;;;;;;;;;5035815;28;20064;-55
2024/03/27 05:30:59;;;;;;;5.15;2.45;;;;;;;;;;5018333;28;20415;-58
2024/03/27 05:33:24;;;;;;;9.40;2.65;;;;;;;;;;5035670;28;20323;-58
2024/03/27 05:35:49;;;;;;;5.93;2.78;;;;;;;;;;5035679;28;20017;-55
2024/03/27 05:38:14;;;;;;;7.57;3.00;;;;;;;;;;5035921;28;20032;-57
2024/03/27 05:40:39;;;;;;;7.40;3.03;;;;;;;;;;5018281;28;20438;-57
2024/03/27 05:43:05;;;;;;;7.75;2.78;;;;;;;;;;5035681;28;20029;-57
2024/03/27 05:45:30;;;;;;;11.50;3.40;;;;;;;;;;5035505;28;20025;-53
2024/03/27 05:47:55;;;;;;;6.57;3.10;;;;;;;;;;5035438;28;20029;-57
2024/03/27 05:50:21;;;;;;;9.40;3.00;;;;;;;;;;5035378;28;20022;-56
2024/03/27 05:52:46;;;;;;;7.90;3.50;;;;;;;;;;5035700;28;20392;-57
2024/03/27 05:55:11;;;;;;;7.60;3.10;;;;;;;;;;5035397;28;20032;-57
2024/03/27 05:57:38;;;;;;;7.13;3.20;;;;;;;;;;5017802;28;20025;-56
2024/03/27 06:00:08;;;;;;;6.43;3.17;;;;;;;;;;5035352;28;20365;-58
2024/03/27 06:02:33;;;;;;;11.40;3.38;;;;;;;;;;5035136;28;20099;-55
2024/03/27 06:04:58;;;;;;;11.90;4.32;;;;;;;;;;5035534;28;20389;-57
2024/03/27 06:07:24;;;;;;;7.13;3.40;;;;;;;;;;5035225;28;20017;-57
2024/03/27 06:09:49;;;;;;;9.23;4.10;;;;;;;;;;5035232;28;20025;-56
2024/03/27 06:12:14;;;;;;;7.50;3.60;;;;;;;;;;5035191;28;20098;-53
2024/03/27 06:14:39;;;;;;;11.85;4.03;;;;;;;;;;5035172;28;20021;-56
2024/03/27 06:17:05;;;;;;;7.32;3.95;;;;;;;;;;5035018;28;20029;-56
2024/03/27 06:19:30;;;;;;;12.80;4.18;;;;;;;;;;5035504;28;20101;-57
2024/03/27 06:21:55;;;;;;;7.22;3.38;;;;;;;;;;5035222;28;20029;-54
2024/03/27 06:24:20;;;;;;;7.53;3.85;;;;;;;;;;5035114;28;20029;-57
2024/03/27 06:26:45;;;;;;;9.85;4.07;;;;;;;;;;5034870;28;20094;-53
2024/03/27 06:29:11;;;;;;;8.57;3.55;;;;;;;;;;5034890;28;20018;-55
2024/03/27 06:31:36;;;;;;;7.22;3.65;;;;;;;;;;5034791;28;20025;-57
2024/03/27 06:34:02;;;;;;;9.18;3.53;;;;;;;;;;5035045;28;20029;-55
2024/03/27 06:36:27;;;;;;;7.93;4.10;;;;;;;;;;5034876;28;20117;-58
2024/03/27 06:38:52;;;;;;;6.88;3.47;;;;;;;;;;5034795;28;20486;-53
2024/03/27 06:41:18;;;;;;;8.20;3.88;;;;;;;;;;5034726;28;20442;-54
2024/03/27 06:43:46;;;;;;;8.25;3.80;;;;;;;;;;5034630;28;20022;-55
2024/03/27 06:46:12;;;;;;;11.27;4.15;;;;;;;;;;5034643;28;20335;-57
2024/03/27 06:48:43;;;;;;;9.57;4.05;;;;;;;;;;5034731;28;20032;-54
2024/03/27 06:51:09;;;;;;;6.30;3.60;;;;;;;;;;5034721;28;20108;-55
2024/03/27 06:53:34;;;;;;;11.10;4.18;;;;;;;;;;5034703;28;20466;-57
2024/03/27 06:56:01;;;;;;;8.55;4.20;;;;;;;;;;5034527;28;20426;-55
2024/03/27 06:58:26;;;;;;;8.75;3.45;;;;;;;;;;5033174;28;20021;-54
2024/03/27 07:00:53;;;;;;;7.60;3.20;;;;;;;;;;5034498;28;20021;-57
2024/03/27 07:03:19;;;;;;;5.97;3.33;;;;;;;;;;5034543;28;20121;-55
2024/03/27 07:05:44;;;;;;;8.02;2.95;;;;;;;;;;5034558;28;20136;-55
2024/03/27 07:08:09;;;;;;;5.05;2.13;;;;;;;;;;5034524;28;20009;-53
2024/03/27 07:10:34;;;;;;;5.30;2.75;;;;;;;;;;5037197;28;20354;-55
2024/03/27 07:12:59;;;;;;;7.05;2.38;;;;;;;;;;5038392;28;20434;-54
2024/03/27 07:15:25;;;;;;;4.72;2.00;;;;;;;;;;5038312;28;20033;-56
2024/03/27 07:17:50;;;;;;;2.75;1.60;;;;;;;;;;5038302;28;20021;-54
2024/03/27 07:20:15;;;;;;;2.95;1.33;;;;;;;;;;5038272;28;20072;-56
2024/03/27 07:22:41;;;;;;;3.53;1.50;;;;;;;;;;5038104;28;20037;-57
2024/03/27 07:25:06;;;;;;;4.72;1.50;;;;;;;;;;5038141;28;20024;-56
2024/03/27 07:27:33;;;;;;;9.70;1.90;;;;;;;;;;5038125;28;20021;-54
2024/03/27 07:29:58;;;;;;;3.17;1.48;;;;;;;;;;5038052;28;20021;-55
2024/03/27 07:32:23;;;;;;;3.22;1.40;;;;;;;;;;5038302;28;20333;-56
2024/03/27 07:34:49;;;;;;;3.28;1.30;;;;;;;;;;5038273;28;20017;-54
2024/03/27 07:37:14;;;;;;;4.13;1.63;;;;;;;;;;5037936;28;20203;-57
2024/03/27 07:39:39;;;;;;;2.17;1.58;;;;;;;;;;5037892;28;20017;-54
2024/03/27 07:42:04;;;;;;;3.75;1.30;;;;;;;;;;5037775;28;20104;-53
2024/03/27 07:44:30;;;;;;;3.28;1.83;;;;;;;;;;5037720;28;20025;-54
2024/03/27 07:46:55;;;;;;;3.17;1.42;;;;;;;;;;5038090;28;20089;-53
2024/03/27 07:49:20;;;;;;;2.97;1.60;;;;;;;;;;5037848;28;20072;-54
2024/03/27 07:51:45;;;;;;;2.90;1.55;;;;;;;;;;5037644;28;20013;-57
2024/03/27 07:54:11;;;;;;;3.72;1.10;;;;;;;;;;5020224;28;20083;-57
2024/03/27 07:56:42;;;;;;;3.95;2.28;;;;;;;;;;5036877;28;20025;-56
2024/03/27 07:59:07;;;;;;;;;;;;;;;;;;5037812;28;20025;-57
2024/03/27 08:01:33;;;;;;;13.18;6.95;;;;;;;;;;5037444;28;19913;-53
2024/03/27 08:03:58;;;;;;;9.65;3.30;;;;;;;;;;5037370;28;20056;-56
2024/03/27 08:06:23;;;;;;;3.25;1.63;;;;;;;;;;5037668;28;20112;-53
2024/03/27 08:08:48;;;;;;;18.10;8.90;;;;;;;;;;5037368;28;20074;-54
2024/03/27 08:11:13;;;;;;;6.63;3.03;;;;;;;;;;5037500;28;20465;-53
2024/03/27 08:13:39;;;;;;;5.70;1.52;;;;;;;;;;5037533;28;20033;-53
2024/03/27 08:16:05;;;;;;;8.95;5.15;;;;;;;;;;5037480;28;20033;-53
2024/03/27 08:18:40;;;;;;;5.47;2.28;;;;;;;;;;5037102;28;20514;-53
2024/03/27 08:21:05;;;;;;;3.33;1.30;;;;;;;;;;5035847;28;20060;-52
2024/03/27 08:23:30;;;;;;;4.65;1.35;;;;;;;;;;5036955;28;20017;-54
2024/03/27 08:25:55;;;;;;;6.35;2.13;;;;;;;;;;5037101;28;20028;-51
2024/03/27 08:28:21;;;;;;;6.88;2.83;;;;;;;;;;5037115;28;20032;-52
2024/03/27 08:30:46;;;;;;;14.77;8.00;;;;;;;;;;5019436;28;20021;-52
2024/03/27 08:33:11;;;;;;;7.15;3.55;;;;;;;;;;5036787;28;20036;-53
2024/03/27 08:35:37;;;;;;;26.35;12.38;;;;;;;;;;5036772;28;20103;-52
2024/03/27 08:38:03;;;;;;;17.73;9.00;;;;;;;;;;5036815;28;20040;-56
2024/03/27 08:40:29;;;;;;;10.23;5.15;;;;;;;;;;5019680;28;20014;-53
2024/03/27 08:42:54;;;;;;;16.30;10.90;;;;;;;;;;5036586;28;20025;-52
2024/03/27 08:45:19;;;;;;;3.65;2.00;;;;;;;;;;5036673;28;20029;-56
2024/03/27 08:47:45;;;;;;;3.83;2.60;;;;;;;;;;5036833;28;20018;-55
2024/03/27 08:50:13;;;;;;;3.05;1.77;;;;;;;;;;5036539;28;20025;-56
2024/03/27 08:52:38;;;;;;;4.40;1.70;;;;;;;;;;5036499;28;20009;-54
2024/03/27 08:55:03;;;;;;;2.63;1.65;;;;;;;;;;5036347;28;20079;-56
2024/03/27 08:57:28;;;;;;;2.58;1.65;;;;;;;;;;5035323;28;20029;-55
2024/03/27 08:59:54;;;;;;;3.25;1.55;;;;;;;;;;5036298;28;20025;-57
2024/03/27 09:02:19;;;;;;;3.22;1.80;;;;;;;;;;5036366;28;20047;-53
2024/03/27 09:04:47;;;;;;;4.40;1.90;;;;;;;;;;5036243;28;20442;-53
2024/03/27 09:07:12;;;;;;;3.40;1.80;;;;;;;;;;5036171;28;20096;-53
2024/03/27 09:09:38;;;;;;;5.03;1.75;;;;;;;;;;5036343;28;20105;-54
2024/03/27 09:12:03;;;;;;;3.17;1.73;;;;;;;;;;5036131;28;20064;-52
2024/03/27 09:14:28;;;;;;;3.60;1.67;;;;;;;;;;5035384;28;20057;-56
2024/03/27 09:16:53;;;;;;;3.60;1.98;;;;;;;;;;5035963;28;20014;-52
2024/03/27 09:19:18;;;;;;;3.17;1.85;;;;;;;;;;5036318;28;20384;-56
2024/03/27 09:21:44;;;;;;;4.50;1.73;;;;;;;;;;5036024;28;20119;-54
2024/03/27 09:24:09;;;;;;;4.25;2.28;;;;;;;;;;5035845;28;20071;-54
2024/03/27 09:26:35;;;;;;;3.70;2.15;;;;;;;;;;5036209;28;20053;-53
2024/03/27 09:29:00;;;;;;;3.40;2.08;;;;;;;;;;5035738;28;20028;-53
2024/03/27 09:31:25;;;;;;;3.40;2.42;;;;;;;;;;5036070;28;20032;-54
2024/03/27 09:33:51;;;;;;;3.22;2.30;;;;;;;;;;5035349;28;20031;-56
2024/03/27 09:36:16;;;;;;;3.38;2.35;;;;;;;;;;5035707;28;20021;-55
2024/03/27 09:38:42;;;;;;;6.38;2.90;;;;;;;;;;5034715;28;20025;-53
2024/03/27 09:41:08;;;;;;;4.28;2.80;;;;;;;;;;5035737;28;20100;-52
2024/03/27 09:43:34;;;;;;;3.55;2.50;;;;;;;;;;5035786;28;20028;-55
2024/03/27 09:45:59;;;;;;;4.75;2.70;;;;;;;;;;5018088;28;20018;-55
2024/03/27 09:48:25;;;;;;;4.85;2.92;;;;;;;;;;5035468;28;20061;-55
2024/03/27 09:50:51;;;;;;;4.47;2.85;;;;;;;;;;5035718;28;20076;-55
2024/03/27 09:53:16;;;;;;;4.10;3.05;;;;;;;;;;5035431;28;20013;-53
2024/03/27 09:55:42;;;;;;;4.53;3.15;;;;;;;;;;5035158;28;20053;-57
2024/03/27 09:58:10;;;;;;;6.15;3.25;;;;;;;;;;5034240;28;20031;-55
2024/03/27 10:00:36;;;;;;;4.43;3.20;;;;;;;;;;5035367;28;20029;-57
2024/03/27 10:03:02;;;;;;;5.90;3.17;;;;;;;;;;5035179;28;20033;-55
2024/03/27 10:05:27;;;;;;;4.20;3.03;;;;;;;;;;5035199;28;20021;-52
2024/03/27 10:07:53;;;;;;;5.13;3.00;;;;;;;;;;5035128;28;20024;-52
2024/03/27 10:10:19;;;;;;;4.20;3.03;;;;;;;;;;5033991;28;20100;-50
2024/03/27 10:12:45;;;;;;;5.45;3.53;;;;;;;;;;5034930;28;20021;-51
2024/03/27 10:15:10;;;;;;;7.63;3.10;;;;;;;;;;5034969;28;20117;-51
2024/03/27 10:17:35;;;;;;;4.32;2.80;;;;;;;;;;5035226;28;20033;-50
2024/03/27 10:20:01;;;;;;;5.53;2.80;;;;;;;;;;5034926;28;20021;-51
2024/03/27 10:22:26;;;;;;;4.97;3.00;;;;;;;;;;5034895;28;20096;-49
2024/03/27 10:24:52;;;;;;;6.22;3.63;;;;;;;;;;5034899;28;20100;-50
2024/03/27 10:27:17;;;;;;;5.22;2.95;;;;;;;;;;5035161;28;20026;-51
2024/03/27 10:29:42;;;;;;;3.67;2.35;;;;;;;;;;5034816;28;20040;-51
2024/03/27 10:32:10;;;;;;;3.75;2.47;;;;;;;;;;5034740;28;20461;-52
2024/03/27 10:34:35;;;;;;;4.72;2.60;;;;;;;;;;5034840;28;20032;-52
2024/03/27 10:37:00;;;;;;;7.15;3.40;;;;;;;;;;5034730;28;20014;-51
2024/03/27 10:39:26;;;;;;;6.40;3.72;;;;;;;;;;5034650;28;20022;-51
2024/03/27 10:41:52;;;;;;;5.60;2.90;;;;;;;;;;5034675;28;20033;-55
2024/03/27 10:44:18;;;;;;;4.80;2.92;;;;;;;;;;5035295;28;20477;-53
2024/03/27 10:46:44;;;;;;;5.00;3.50;;;;;;;;;;5038706;28;20017;-53
2024/03/27 10:49:10;;;;;;;8.95;4.63;;;;;;;;;;5038719;28;20376;-51
2024/03/27 10:51:36;;;;;;;7.13;4.68;;;;;;;;;;5038675;28;20032;-54
2024/03/27 10:54:01;;;;;;;7.85;3.58;;;;;;;;;;5038731;28;20029;-52
2024/03/27 10:56:26;;;;;;;6.35;3.88;;;;;;;;;;5038237;28;20013;-52
2024/03/27 10:58:52;;;;;;;8.48;4.85;;;;;;;;;;5038724;28;20056;-51
2024/03/27 11:01:19;;;;;;;17.98;8.85;;;;;;;;;;5038525;28;20029;-51
2024/03/27 11:03:49;;;;;;;12.25;7.00;;;;;;;;;;5038446;28;20022;-53
2024/03/27 11:06:15;;;;;;;14.40;7.70;;;;;;;;;;5021327;28;20139;-51
2024/03/27 11:08:44;;;;;;;27.60;14.55;;;;;;;;;;5038398;28;20018;-51
2024/03/27 11:11:10;;;;;;;6.43;4.32;;;;;;;;;;5019088;28;20028;-51
2024/03/27 11:13:35;;;;;;;5.65;3.85;;;;;;;;;;5018533;28;20037;-53
2024/03/27 11:16:01;;;;;;;4.85;3.97;;;;;;;;;;5018424;28;20022;-51
2024/03/27 11:18:31;;;;;;;5.13;3.80;;;;;;;;;;5018400;28;20018;-54
2024/03/27 11:20:57;;;;;;;5.65;4.18;;;;;;;;;;5018590;28;20021;-50
2024/03/27 11:23:49;;;;;;;5.75;4.18;;;;;;;;;;5018952;28;20112;-53
2024/03/27 11:26:14;;;;;;;6.97;4.85;;;;;;;;;;5016306;28;20359;-51
2024/03/27 11:28:41;;;;;;;6.13;4.78;;;;;;;;;;5018302;28;20014;-50
2024/03/27 11:31:06;;;;;;;6.72;4.60;;;;;;;;;;5018443;28;20021;-50
2024/03/27 11:33:32;;;;;;;8.63;4.53;;;;;;;;;;5018128;28;20036;-50
2024/03/27 11:35:57;;;;;;;5.82;4.68;;;;;;;;;;5018701;28;20048;-50
2024/03/27 11:38:23;;;;;;;12.55;4.60;;;;;;;;;;5018082;28;20021;-50
2024/03/27 11:40:54;;;;;;;5.55;4.43;;;;;;;;;;5018059;28;20040;-51
2024/03/27 11:43:20;;;;;;;6.50;5.00;;;;;;;;;;5017886;28;20021;-53
2024/03/27 11:45:49;;;;;;;6.80;5.00;;;;;;;;;;5017956;28;20022;-51
2024/03/27 11:48:14;;;;;;;7.13;4.70;;;;;;;;;;5017991;28;20017;-53
2024/03/27 11:50:40;;;;;;;5.97;4.38;;;;;;;;;;5017892;28;20021;-51
2024/03/27 11:53:07;;;;;;;5.38;3.92;;;;;;;;;;5017797;28;20065;-50
2024/03/27 11:55:32;;;;;;;4.55;3.47;;;;;;;;;;5000210;28;20022;-51
2024/03/27 11:57:57;;;;;;;5.70;3.90;;;;;;;;;;5017761;28;20028;-52
2024/03/27 12:00:22;;;;;;;4.25;3.53;;;;;;;;;;5017664;28;20021;-53
2024/03/27 12:02:48;;;;;;;8.25;4.32;;;;;;;;;;5017932;28;20140;-52
2024/03/27 12:05:14;;;;;;;5.50;3.90;;;;;;;;;;5017602;28;20017;-51
2024/03/27 12:07:39;;;;;;;8.20;5.15;;;;;;;;;;5017771;28;20354;-51
2024/03/27 12:10:06;;;;;;;9.27;6.80;;;;;;;;;;5028719;28;20457;-53
2024/03/27 12:12:31;;;;;;;10.23;6.00;;;;;;;;;;5037329;28;20024;-53
2024/03/27 12:14:57;;;;;;;5.00;3.05;;;;;;;;;;5037650;28;20104;-54
2024/03/27 12:17:24;;;;;;;3.78;1.95;;;;;;;;;;5037214;28;20025;-53
2024/03/27 12:19:52;;;;;;;2.80;1.80;;;;;;;;;;5037212;28;20029;-55
2024/03/27 12:22:18;;;;;;;4.20;2.58;;;;;;;;;;5037099;28;20022;-52
2024/03/27 12:24:44;;;;;;;3.88;2.75;;;;;;;;;;5036732;28;20021;-53
2024/03/27 12:27:09;;;;;;;4.32;2.85;;;;;;;;;;5037028;28;20037;-53
2024/03/27 12:29:36;;;;;;;3.60;2.20;;;;;;;;;;5036927;28;20342;-51
2024/03/27 12:32:04;;;;;;;5.97;2.58;;;;;;;;;;5037008;28;20017;-53
2024/03/27 12:34:29;;;;;;;3.70;2.00;;;;;;;;;;5036910;28;20100;-51
2024/03/27 12:36:57;;;;;;;5.25;2.65;;;;;;;;;;5036961;28;20101;-51
2024/03/27 12:39:22;;;;;;;5.95;2.22;;;;;;;;;;5036814;28;20022;-51
2024/03/27 12:41:47;;;;;;;4.07;1.95;;;;;;;;;;5037015;28;20017;-51
2024/03/27 12:44:13;;;;;;;3.05;1.90;;;;;;;;;;5036679;28;20071;-54
2024/03/27 12:46:38;;;;;;;6.38;2.22;;;;;;;;;;5037162;28;20111;-54
2024/03/27 12:49:03;;;;;;;3.97;2.22;;;;;;;;;;5036913;28;20107;-53
2024/03/27 12:51:28;;;;;;;4.20;2.10;;;;;;;;;;5052200;28;20057;-55
2024/03/27 12:53:54;;;;;;;4.60;2.90;;;;;;;;;;5036433;28;20100;-53
2024/03/27 12:56:19;;;;;;;3.92;2.10;;;;;;;;;;5036420;28;20017;-55
2024/03/27 12:58:45;;;;;;;3.92;2.65;;;;;;;;;;5036366;28;20033;-53
2024/03/27 13:01:11;;;;;;;4.32;2.55;;;;;;;;;;5036542;28;20473;-53
2024/03/27 13:03:36;;;;;;;4.45;2.70;;;;;;;;;;5036245;28;20049;-54
2024/03/27 13:06:03;;;;;;;3.75;2.40;;;;;;;;;;5036390;28;20454;-52
2024/03/27 13:08:28;;;;;;;4.82;2.92;;;;;;;;;;5035555;28;20017;-54
2024/03/27 13:10:53;;;;;;;7.07;3.63;;;;;;;;;;5036097;28;20101;-54
2024/03/27 13:13:18;;;;;;;7.28;3.33;;;;;;;;;;5036173;28;20052;-52
2024/03/27 13:15:44;;;;;;;4.40;2.55;;;;;;;;;;5036641;28;20140;-51
2024/03/27 13:18:09;;;;;;;8.55;2.88;;;;;;;;;;5036605;28;20029;-53
2024/03/27 13:20:34;;;;;;;6.90;2.38;;;;;;;;;;5036047;28;20028;-54
2024/03/27 13:22:59;;;;;;;3.25;2.15;;;;;;;;;;5036695;28;20014;-51
2024/03/27 13:25:27;;;;;;;4.47;2.03;;;;;;;;;;5036076;28;20553;-56
2024/03/27 13:27:53;;;;;;;6.78;2.35;;;;;;;;;;5036123;28;20014;-55
2024/03/27 13:30:18;;;;;;;4.30;2.38;;;;;;;;;;5036090;28;20024;-55
2024/03/27 13:32:46;;;;;;;3.90;2.10;;;;;;;;;;5036081;28;20035;-53
2024/03/27 13:35:12;;;;;;;3.63;2.10;;;;;;;;;;5035783;28;20017;-54
2024/03/27 13:37:37;;;;;;;4.35;2.33;;;;;;;;;;5035654;28;20323;-55
2024/03/27 13:40:03;;;;;;;5.72;2.97;;;;;;;;;;5035962;28;20431;-54
2024/03/27 13:42:28;;;;;;;4.03;2.30;;;;;;;;;;5035874;28;20022;-52
2024/03/27 13:44:54;;;;;;;4.93;1.90;;;;;;;;;;5035424;28;20017;-52
2024/03/27 13:47:19;;;;;;;3.45;1.67;;;;;;;;;;5051767;28;20419;-55
2024/03/27 13:49:44;;;;;;;3.88;1.33;;;;;;;;;;5035506;28;20021;-55
2024/03/27 13:52:09;;;;;;;2.95;1.48;;;;;;;;;;5035796;28;20014;-52
2024/03/27 13:54:37;;;;;;;3.90;1.50;;;;;;;;;;5035672;28;20029;-53
2024/03/27 13:57:02;;;;;;;4.38;1.40;;;;;;;;;;5050605;28;20032;-52
2024/03/27 13:59:28;;;;;;;3.90;1.52;;;;;;;;;;5035639;28;20021;-52
2024/03/27 14:01:55;;;;;;;3.40;1.48;;;;;;;;;;5035158;28;20405;-54
2024/03/27 14:04:20;;;;;;;3.15;1.30;;;;;;;;;;5035157;28;20369;-50
2024/03/27 14:06:45;;;;;;;4.35;1.40;;;;;;;;;;5035220;28;20009;-51
2024/03/27 14:09:12;;;;;;;4.47;1.25;;;;;;;;;;5035153;28;20022;-52
2024/03/27 14:11:37;;;;;;;3.25;1.20;;;;;;;;;;5035157;28;20042;-55
2024/03/27 14:14:03;;;;;;;2.60;1.15;;;;;;;;;;5035083;28;20057;-52
2024/03/27 14:16:29;;;;;;;2.83;1.20;;;;;;;;;;5034966;28;20025;-52
2024/03/27 14:18:54;;;;;;;2.65;1.25;;;;;;;;;;5034941;28;20025;-55
2024/03/27 14:21:19;;;;;;;2.92;1.10;;;;;;;;;;5034961;28;20480;-54
2024/03/27 14:23:45;;;;;;;5.35;1.65;;;;;;;;;;5034803;28;20032;-55
2024/03/27 14:26:10;;;;;;;3.72;1.30;;;;;;;;;;5050600;28;20018;-55
2024/03/27 14:28:36;;;;;;;3.95;1.55;;;;;;;;;;5035116;28;20387;-55
2024/03/27 14:31:03;;;;;;;4.47;1.40;;;;;;;;;;5035258;28;20014;-52
2024/03/27 14:33:28;;;;;;;3.05;1.20;;;;;;;;;;5034730;28;20017;-52